Scroll down
FLIGHT INFORMATION
Olympic Air

OAL260

At Arrival Gate

CYYR
 KATL
DATE: 2018-12-04
GATE:  -
GATE DEPARTURE: 15:02
TAKEOFF: 15:14
DATE: 2018-12-04
GATE: F14
LANDING: 19:05
GATE ARRIVAL: 19:15
FLIGHT DATA
Crew: 
Speed: 
913 kph
Altitude: 
43,008 ft
Stage Length: 
2,894.3 km
Block Time: 
4.2 hrs
Flight Time: 
3.9 hrs
Fuel Used: 
31,502 kg
Cleared Route: YYR YRI FLEUR CFB PSB PSYKO EMNEM GEFFS ASERY WISTA KONGO HLRRY STRWY
TRACK DATA
50,000 ft 1,000 kts
AIRCRAFT INFO AND CUMULATIVE STATS
Aircraft Type: 
B748
Registration: 
SELCAL: 
MSN/LN: 
0 / 1
Operator: 
Total Flights: 
6
Total Block Time: 
27.6 hrs
Total Flight Time: 
26.2 hrs
Total Fuel Used: 
233,890 kg
DATALINK LOG | Newest first | Current as of: 2022-10-07 22:17:48
LABEL SEQUENCE CONTENT Dn/Up
QD151119:15 22.9▼ Dn
QC050519:05▼ Dn
GA1459YOUR ASSIGNMENT IS STILL GATE F14▲ Up
GR1411KATL 19:02▼ Dn
5U5452KATL 042151Z 31011G18KT 10SM SCT250 07/M01 A3013▲ Up
5S5452KATL▼ Dn
5U3204LGAV 042131Z 35015KT 9999 FEW030 10/05 Q1012▲ Up
5S3204LGAV▼ Dn
GA1646YOUR ASSIGNMENT IS STILL GATE F14▲ Up
GR1617KATL 19:00▼ Dn
GA1645GATE F14▲ Up
GR1612KATL 19:00▼ Dn
2U1147KATL 041652Z 32009KT 10SM FEW030 07/M01 A3013 RMK AO2 SLP207 T00721006▲ Up
2S1147KATL▼ Dn
5U1007KATL 042101Z 31011G18KT 10SM SCT035 BKN250 07/M01 A3015▲ Up
5S1007KATL▼ Dn
2U0829KATL 041552Z 34009KT 10SM SCT027 SCT180 07/M01 A3015 RMK AO2 SLP214 T00671011▲ Up
2S0829KATL▼ Dn
5U0532KATL 042101Z 31011G18KT 10SM SCT035 BKN250 07/M01 A3015▲ Up
5S0532KATL▼ Dn
QB130915:13▼ Dn
QA011115:01 92.5▼ Dn
2U5433KATL 041352Z 33011G19KT 10SM FEW035 FEW120 SCT220 05/M02 A3013 RMK AO2 SLP206 VIRGA NW-N T00501017▲ Up
2U5433CYYR 041426Z 27009KT 10SM -SN SCT045 OVC066 M08/M11 A2931 RMK SC3AC5 VIS 5 W SLP930▲ Up
2S5433CYYR KATL▼ Dn


AIRCRAFT HISTORY
FLIGHT DATE FLIGHT NO. ORIGIN DESTINATION CLEARED ROUTE BLOCK TIME FLIGHT TIME FUEL USED PILOT
2022-01-16OAL519KBUF KBOS KBUF GEE PONCT KBOS1.2 hrs1 hrs27,293 lbChemtrails
2019-03-22OAL519KATL KBUF KATL MPASS ZELAN PADGT COLVN SMTTH CEMEX IBATE TONIO TAFTT JONEN HNN EWC DKK ZOBSO RW051.8 hrs1.6 hrs36,762 lbChemtrails
2018-12-04OAL260CYYR KATL YYR YRI FLEUR CFB PSB PSYKO EMNEM GEFFS ASERY WISTA KONGO HLRRY STRWY4.2 hrs3.9 hrs69,450 lbChris Makris
2018-11-23OAL260LGAV CYYR RIMAX XANIS YNN VJOSA PAPIZ GONOT CRAYE GISAM RILIM SAL LABIN SUXAN VALAV RONAG ARGAX ELMUR MANEG RIPUS DITON HOC NATLI LUL IXILU RESPO RLP ROTSI KOTUN PODUK DIDOR IRBAL NITAR ABNUR DIMAL ALESO ROTNO ETVAX TIGER BIG GOXUL LINDY NORRY CPT KENET UGNUS OKTAD TALGA LANON BADSI LIPGO RESNO 5620N 5730N 5740N 5650N JANJO YRI FLEUR CFB PSK SPA92 DGESS8.1 hrs7.9 hrs156,907 lbChris Makris
2018-11-23OAL260LGAV LGAV RIMAX XANIS YNN VJOSA PAPIZ GONOT CRAYE GISAM RILIM SAL LABIN SUXAN VALAV RONAG ARGAX ELMUR MANEG RIPUS DITON HOC NATLI LUL IXILU RESPO RLP ROTSI KOTUN PODUK DIDOR IRBAL NITAR ABNUR DIMAL ALESO ROTNO ETVAX TIGER BIG GOXUL LINDY NORRY CPT KENET UGNUS OKTAD TALGA LANON BADSI LIPGO RESNO 5620N 5730N 5740N 5650N JANJO YRI FLEUR CFB PSK SPA92 DGESS0.1 hrs0 hrs0 lbChris Makris
2018-11-06OAL260KPAE LGAV PAE HUH HUH03 COGLE SHARD VITEV BOOTH SPUZZ MERYT ICOLA STUMM YNY BOJAM CALLY SELUM ALGAR YMM 62N00 6591N 6780N 6870N 6860N 6850N 6740N 6530N 6320N ATSIX AKIVO LARDI TOPPA LIRSU NOSPA KRH LAMGO UTABA MOMUK BEMKI XEBIX ELMEM BILDU OTRES GIRIS TISAX NAXAV GIKEB LAMPO AKADO AGOMO BUSER GISNU XAPAT TIGRA BEDEX ROTSA SOTEG ARA NEMES12.1 hrs11.8 hrs225,228 lbChris Makris